首页
METAR-TAF:

METAR-TAF

机场 :

Emporia Municipal Airport

恩波里亚, 堪薩斯州, 美国

纬度: 38-19-44N, 经度: 096-11-38W, 海拔: 367米

当前天气观测

该预报发布于26分钟前的04:53 UTC
风速8节,风向北转西北
温度 27°C
湿度 74%
气压 1013 hPa
能見度: 16.1公里
天空无云

METAR: KEMP 230453Z AUTO 34008KT 10SM CLR 27/22 A2991 RMK AO2 SLP116 T02720222

时间: 00:19 (05:19 UTC)


TAF: 丢失

超过4000个机场的气象观测和天气预报(METAR&TAF报告)。

可查询的气象台以黄色和红色小点在地图上表示。

将鼠标移到小点上方,可查看气象台名称。

然后点击查看天气观测和预报。

如需切换地图:点击带黑十字的绿色按钮放大地图;点击带横线的绿色按钮缩小地图;或者点击绿色箭头查看邻近地区的地图。


METAR-TAF: